Dubbo current weather conditions

sailwx.info

Wind from 280 at 7 knots

Air temperature 7.0° C
Visibility: greater than 5.4 NM
Dewpoint 5.0° C

Last reported at 2015-Aug-05 10:30 UTC.
Time now 2015-Aug-05 12:27 UTC

Location: S 32°13' E 148°34'.
View on Google Maps.

See reports from other nearby stations

  
Tides and Currents Weather Stations Pressure Air Temp Water Temp Dewpoint Dewpoint Depression Visibility Wind Speed Wind Dir Waves Ship Positions
date/time (UTC)wind fromknots sea level pressurealtimeterstation pressurevisibilityair tempwater tempwave heightnotes
2015-Aug-05 11:30 280 6 5.4 7.0
2015-Aug-05 11:00 270 6 5.4 6.0
2015-Aug-05 10:30 280 7 5.4 7.0
2015-Aug-05 10:00 280 7 5.4 7.0
2015-Aug-05 09:30 270 6 5.4 7.0
2015-Aug-05 09:00 270 7 5.4 7.0
2015-Aug-05 08:30 260 8 5.4 7.0
2015-Aug-05 08:00 250 11 5.4 8.0
2015-Aug-05 07:30 270 11 5.410.0
2015-Aug-05 07:00 280 10 5.411.0
2015-Aug-05 06:30 270 10 5.411.0
2015-Aug-05 06:00 310 9 5.410.0
2015-Aug-05 05:30 300 10 5.411.0
2015-Aug-05 05:00 270 13 5.411.0
2015-Aug-05 04:30 300 11 5.411.0
2015-Aug-05 04:00 300 13 5.411.0
2015-Aug-05 03:30 290 11 5.411.0
2015-Aug-05 03:00 290 12 5.411.0
2015-Aug-05 02:30 290 15 5.411.0
2015-Aug-05 02:00 270 13 5.411.0
2015-Aug-05 01:30 270 14 5.412.0
2015-Aug-05 01:00 280 13 5.410.0
2015-Aug-05 00:30 270 10 5.410.0
2015-Aug-05 00:00 300 7 5.4 9.0
2015-Aug-04 23:30 300 8 5.4 8.0
2015-Aug-04 23:00 280 9 5.4 8.0
2015-Aug-04 22:30 270 10 5.4 7.0
2015-Aug-04 22:00 310 3 5.4 6.0
2015-Aug-04 21:30 280 4 5.4 5.0
2015-Aug-04 21:00 310 4 5.4 5.0
2015-Aug-04 20:30 5.4 5.0
2015-Aug-04 20:00 5.4 5.0
2015-Aug-04 19:30 5.4 5.0
2015-Aug-04 19:00 280 4 5.4 5.0
2015-Aug-04 18:30 270 4 5.4 5.0
2015-Aug-04 18:00 270 6 5.4 5.0
2015-Aug-04 17:30 270 6 5.4 5.0
2015-Aug-04 17:00 250 5 5.4 6.0
2015-Aug-04 16:30 230 6 5.4 6.0
2015-Aug-04 16:00 240 5 5.4 6.0
2015-Aug-04 15:30 230 8 5.4 6.0
2015-Aug-04 15:00 230 7 5.4 6.0
2015-Aug-04 14:30 220 7 5.4 7.0
2015-Aug-04 14:00 230 6 5.4 6.0
2015-Aug-04 13:30 210 5 5.4 7.0
2015-Aug-04 13:00 210 5 5.4 7.0
2015-Aug-04 12:30 210 7 5.4 7.0
2015-Aug-04 12:00 210 5 5.4 7.0
2015-Aug-04 11:30 210 4 5.4 7.0
2015-Aug-04 11:00 220 6 5.4 7.0
2015-Aug-04 10:30 240 4 5.4 6.0
2015-Aug-04 10:00 200 4 5.4 6.0
2015-Aug-04 09:30 230 4 5.4 6.0
2015-Aug-04 09:00 210 4 5.4 7.0
2015-Aug-04 08:30 230 5 5.4 7.0
2015-Aug-04 08:00 250 6 5.4 7.0
2015-Aug-04 07:30 210 7 5.4 7.0
2015-Aug-04 07:00 220 6 5.4 8.0
2015-Aug-04 06:30 230 10 5.4 8.0
2015-Aug-04 06:00 270 10 5.4 8.0
2015-Aug-04 05:30 220 10 5.4 8.0
2015-Aug-04 05:00 230 11 5.4 8.0
2015-Aug-04 04:30 230 11 5.4 9.0
2015-Aug-04 04:00 220 10 5.4 9.0
2015-Aug-04 03:30 200 10 5.410.0
2015-Aug-04 03:00 190 10 5.4 9.0
2015-Aug-04 02:30 240 11 5.410.0
2015-Aug-04 02:00 200 9 5.4 9.0
2015-Aug-04 01:30 210 8 5.4 9.0
2015-Aug-04 01:00 200 9 5.4 9.0
2015-Aug-04 00:30 200 7 5.4 8.0
2015-Aug-04 00:00 180 7 5.4 8.0
2015-Aug-03 23:30 170 7 5.4 8.0
2015-Aug-03 23:00 150 6 5.4 7.0
2015-Aug-03 22:30 150 7 5.4 6.0
2015-Aug-03 22:00 150 6 5.4 4.0
2015-Aug-03 21:30 130 6 5.4 2.0
2015-Aug-03 21:00 210 4 5.4 2.0
2015-Aug-03 20:30 190 7 5.4 3.0
2015-Aug-03 20:00 190 7 5.4 3.0
2015-Aug-03 19:30 190 7 5.4 3.0
2015-Aug-03 19:00 210 6 5.4 3.0
2015-Aug-03 18:30 220 4 5.4 4.0
2015-Aug-03 18:00 210 5 5.4 5.0
2015-Aug-03 17:30 220 7 5.4 7.0
2015-Aug-03 17:00 220 7 5.4 7.0
2015-Aug-03 16:30 230 7 5.4 6.0
2015-Aug-03 16:00 230 5 5.4 5.0
2015-Aug-03 15:30 250 5 5.4 5.0
2015-Aug-03 15:00 250 7 5.4 4.0
2015-Aug-03 14:30 230 5 5.4 6.0
2015-Aug-03 14:00 210 6 5.4 7.0
2015-Aug-03 13:30 230 8 5.4 8.0
2015-Aug-03 13:00 230 8 5.4 9.0
2015-Aug-03 12:30 230 12 5.4 9.0
2015-Aug-03 12:00 220 8 5.4 9.0